Time;durP1;ratioP1;P1;durP2;ratioP2;P2;SDS_P1;SDS_P2;PMS_P1;PMS_P2;Temp;Humidity;BMP_temperature;BMP_pressure;BME280_temperature;BME280_humidity;BME280_pressure;Samples;Min_cycle;Max_cycle;Signal;HPM_P1;HPM_P2
2022/03/16 00:00:27;;;;;;;7.80;4.90;;;5.30;99.90;;;;;;4978399;28;20236;-85
2022/03/16 00:02:53;;;;;;;10.70;6.70;;;5.20;99.90;;;;;;4977026;28;20216;-87
2022/03/16 00:05:19;;;;;;;10.60;8.00;;;5.10;99.90;;;;;;4985357;28;20218;-86
2022/03/16 00:07:45;;;;;;;7.93;6.63;;;5.00;99.90;;;;;;4984789;28;20212;-86
2022/03/16 00:10:12;;;;;;;10.57;9.07;;;5.00;99.90;;;;;;4974820;28;20231;-87
2022/03/16 00:12:39;;;;;;;8.70;7.30;;;5.00;99.90;;;;;;4976844;28;20230;-84
2022/03/16 00:15:05;;;;;;;20.20;8.13;;;5.20;99.90;;;;;;4983842;28;20277;-86
2022/03/16 00:17:31;;;;;;;11.67;6.47;;;5.20;99.90;;;;;;4960786;28;20286;-88
2022/03/16 00:19:57;;;;;;;12.53;8.50;;;5.20;99.90;;;;;;4979368;28;20683;-86
2022/03/16 00:22:22;;;;;;;9.87;7.57;;;5.40;99.90;;;;;;4985872;28;20212;-86
2022/03/16 00:24:48;;;;;;;8.97;7.13;;;5.60;99.90;;;;;;4978563;28;20319;-90
2022/03/16 00:27:14;;;;;;;14.77;9.20;;;5.80;99.90;;;;;;4985928;28;20246;-91
2022/03/16 00:29:40;;;;;;;13.63;9.27;;;6.00;99.90;;;;;;4976794;28;20254;-90
2022/03/16 00:32:06;;;;;;;10.10;7.87;;;6.10;99.90;;;;;;4960471;28;20645;-86
2022/03/16 00:34:32;;;;;;;9.40;7.77;;;6.20;99.90;;;;;;4986030;28;20224;-88
2022/03/16 00:36:58;;;;;;;16.87;9.77;;;6.20;99.90;;;;;;4944837;28;20771;-88
2022/03/16 00:39:23;;;;;;;20.27;10.23;;;6.20;99.90;;;;;;4968150;28;20228;-86
2022/03/16 00:41:49;;;;;;;18.90;9.77;;;6.20;99.90;;;;;;4981495;28;20239;-86
2022/03/16 00:44:15;;;;;;;15.33;9.43;;;6.20;99.90;;;;;;4986296;28;20929;-89
2022/03/16 00:46:41;;;;;;;16.03;8.50;;;6.10;99.90;;;;;;4976431;28;20220;-86
2022/03/16 00:49:07;;;;;;;9.47;7.97;;;6.10;99.90;;;;;;4976681;28;20228;-87
2022/03/16 00:51:33;;;;;;;28.50;12.13;;;6.10;99.90;;;;;;4939983;28;1295474;-87
2022/03/16 00:54:00;;;;;;;14.00;9.83;;;6.00;99.90;;;;;;4970492;28;20707;-87
2022/03/16 00:56:26;;;;;;;14.53;9.00;;;6.00;99.90;;;;;;4990927;28;20196;-88
2022/03/16 00:58:51;;;;;;;17.63;7.93;;;6.00;99.90;;;;;;4988989;28;20223;-86
2022/03/16 01:01:17;;;;;;;13.13;6.90;;;6.00;99.90;;;;;;4988709;28;20713;-85
2022/03/16 01:03:43;;;;;;;23.03;9.80;;;6.00;99.90;;;;;;4965837;28;20223;-85
2022/03/16 01:06:15;;;;;;;13.70;8.53;;;6.00;99.90;;;;;;4972300;28;20319;-90
2022/03/16 01:08:42;;;;;;;12.53;9.20;;;5.80;99.90;;;;;;4979058;28;20192;-87
2022/03/16 01:11:07;;;;;;;13.77;8.77;;;5.80;99.90;;;;;;4991151;28;20230;-87
2022/03/16 01:13:33;;;;;;;7.77;7.00;;;5.80;99.90;;;;;;4964298;28;20240;-86
2022/03/16 01:15:59;;;;;;;12.20;7.50;;;5.90;99.90;;;;;;4965275;28;20250;-87
2022/03/16 01:18:25;;;;;;;24.20;8.50;;;5.90;99.90;;;;;;4991922;28;20220;-87
2022/03/16 01:20:50;;;;;;;6.30;4.93;;;5.50;99.90;;;;;;4961419;28;20680;-87
2022/03/16 01:23:16;;;;;;;31.57;7.03;;;4.90;99.90;;;;;;4979660;28;20196;-90
2022/03/16 01:25:42;;;;;;;21.37;6.13;;;4.30;99.90;;;;;;4955163;28;20579;-87
2022/03/16 01:28:08;;;;;;;9.60;6.37;;;3.90;99.90;;;;;;4971013;28;20220;-88
2022/03/16 01:30:33;;;;;;;8.13;4.23;;;3.70;99.90;;;;;;4971773;28;20217;-90
2022/03/16 01:32:59;;;;;;;3.97;3.67;;;3.50;99.90;;;;;;4987955;28;20419;-90
2022/03/16 01:35:25;;;;;;;4.63;4.17;;;3.50;99.90;;;;;;4972223;28;20196;-86
2022/03/16 01:37:51;;;;;;;4.87;4.57;;;3.50;99.90;;;;;;4955013;28;20769;-86
2022/03/16 01:40:16;;;;;;;6.13;4.87;;;3.80;99.90;;;;;;4954623;28;20589;-89
2022/03/16 01:42:42;;;;;;;11.27;5.40;;;3.80;99.90;;;;;;4963453;28;20677;-86
2022/03/16 01:45:08;;;;;;;8.17;5.30;;;3.70;99.90;;;;;;4987130;28;20720;-88
2022/03/16 01:47:34;;;;;;;4.43;4.10;;;3.80;99.90;;;;;;4988657;28;20227;-88
2022/03/16 01:50:00;;;;;;;6.63;5.77;;;4.10;99.90;;;;;;4972658;28;20841;-88
2022/03/16 01:52:28;;;;;;;8.17;4.03;;;4.30;99.90;;;;;;4986307;28;20231;-90
2022/03/16 01:54:54;;;;;;;8.73;6.27;;;4.30;99.90;;;;;;4964153;28;20227;-87
2022/03/16 01:57:20;;;;;;;9.27;7.10;;;4.40;99.90;;;;;;4961751;28;20271;-88
2022/03/16 01:59:47;;;;;;;9.10;5.87;;;4.80;99.90;;;;;;4988410;28;20364;-87
2022/03/16 02:02:13;;;;;;;9.53;6.87;;;4.90;99.90;;;;;;4964481;28;20286;-89
2022/03/16 02:04:40;;;;;;;7.07;4.67;;;4.60;99.90;;;;;;4964934;28;20267;-85
2022/03/16 02:07:07;;;;;;;11.50;7.60;;;4.50;99.90;;;;;;4978747;28;20220;-87
2022/03/16 02:09:33;;;;;;;9.07;8.17;;;4.40;99.90;;;;;;4987568;28;20796;-92
2022/03/16 02:12:00;;;;;;;7.77;5.53;;;4.90;99.90;;;;;;4987443;28;20247;-86
2022/03/16 02:14:25;;;;;;;18.87;7.73;;;5.00;99.90;;;;;;4962515;28;20613;-88
2022/03/16 02:16:51;;;;;;;11.20;7.20;;;4.90;99.90;;;;;;4969906;28;20976;-88
2022/03/16 02:19:17;;;;;;;9.47;8.50;;;5.00;99.90;;;;;;4975604;28;20220;-89
2022/03/16 02:21:46;;;;;;;7.30;6.70;;;5.00;99.90;;;;;;4987547;28;20301;-88
2022/03/16 02:24:12;;;;;;;8.30;7.40;;;5.00;99.90;;;;;;4977842;28;20219;-89
2022/03/16 02:26:39;;;;;;;14.50;9.70;;;4.90;99.90;;;;;;4976167;28;20220;-86
2022/03/16 02:29:05;;;;;;;14.13;9.47;;;4.70;99.90;;;;;;4977635;28;20194;-89
2022/03/16 02:31:31;;;;;;;9.60;7.10;;;4.70;99.90;;;;;;4986505;28;20673;-87
2022/03/16 02:33:57;;;;;;;11.17;8.53;;;4.80;99.90;;;;;;4976767;28;20224;-88
2022/03/16 02:36:23;;;;;;;6.63;5.87;;;4.80;99.90;;;;;;4968782;28;20228;-89
2022/03/16 02:38:49;;;;;;;8.87;7.93;;;4.80;99.90;;;;;;4987451;28;20372;-90
2022/03/16 02:41:15;;;;;;;6.33;5.83;;;4.90;99.90;;;;;;4979772;28;20699;-89
2022/03/16 02:43:40;;;;;;;17.00;8.47;;;4.80;99.90;;;;;;4961167;28;20640;-86
2022/03/16 02:46:06;;;;;;;8.67;6.10;;;4.50;99.90;;;;;;4978157;28;20662;-88
2022/03/16 02:48:32;;;;;;;8.77;6.80;;;4.50;99.90;;;;;;4976702;28;20224;-90
2022/03/16 02:50:58;;;;;;;10.90;6.53;;;4.50;99.90;;;;;;4962509;28;20240;-88
2022/03/16 02:53:24;;;;;;;14.43;7.17;;;4.60;99.90;;;;;;4977059;28;20239;-89
2022/03/16 02:55:50;;;;;;;11.67;8.00;;;4.70;99.90;;;;;;4968524;28;20227;-88
2022/03/16 02:58:17;;;;;;;8.90;6.57;;;4.70;99.90;;;;;;4959797;28;20228;-87
2022/03/16 03:00:43;;;;;;;8.53;6.30;;;4.70;99.90;;;;;;4974106;28;20232;-86
2022/03/16 03:03:09;;;;;;;15.70;10.13;;;4.70;99.90;;;;;;4958826;28;20224;-87
2022/03/16 03:05:35;;;;;;;10.90;7.43;;;4.70;99.90;;;;;;4968309;28;20853;-84
2022/03/16 03:08:01;;;;;;;9.43;6.43;;;4.70;99.90;;;;;;4966769;28;20197;-88
2022/03/16 03:10:27;;;;;;;12.83;6.93;;;4.80;99.90;;;;;;4959285;28;20216;-85
2022/03/16 03:12:53;;;;;;;12.30;8.13;;;4.70;99.90;;;;;;4959509;28;20228;-88
2022/03/16 03:15:19;;;;;;;13.87;8.53;;;4.70;99.90;;;;;;4918521;28;20224;-86
2022/03/16 03:17:45;;;;;;;14.50;8.83;;;4.80;99.90;;;;;;4975150;28;20195;-87
2022/03/16 03:20:12;;;;;;;13.13;8.67;;;4.80;99.90;;;;;;4983853;28;20216;-86
2022/03/16 03:22:38;;;;;;;8.00;7.03;;;4.90;99.90;;;;;;4976323;28;20254;-87
2022/03/16 03:25:04;;;;;;;12.20;7.47;;;4.90;99.90;;;;;;4966768;28;20232;-85
2022/03/16 03:27:32;;;;;;;7.87;6.87;;;4.90;99.90;;;;;;4959605;28;20215;-86
2022/03/16 03:29:59;;;;;;;9.33;7.43;;;5.00;99.90;;;;;;4935854;28;20247;-85
2022/03/16 03:32:24;;;;;;;7.30;6.37;;;5.00;99.90;;;;;;4920183;28;20291;-86
2022/03/16 03:34:51;;;;;;;13.83;6.80;;;5.00;99.90;;;;;;4918682;28;20231;-86
2022/03/16 03:37:20;;;;;;;14.40;7.97;;;5.10;99.90;;;;;;4951299;28;20221;-87
2022/03/16 03:39:46;;;;;;;10.97;8.13;;;5.00;99.90;;;;;;4983479;28;20244;-86
2022/03/16 03:42:12;;;;;;;13.40;9.47;;;5.20;99.90;;;;;;4966304;28;20216;-86
2022/03/16 03:44:38;;;;;;;11.57;7.43;;;5.00;99.90;;;;;;4933477;28;20336;-87
2022/03/16 03:47:09;;;;;;;11.73;7.97;;;5.10;99.90;;;;;;4951036;28;20227;-87
2022/03/16 03:49:36;;;;;;;17.73;5.87;;;5.20;99.90;;;;;;4974586;28;20240;-85
2022/03/16 03:52:03;;;;;;;9.63;8.67;;;4.90;99.90;;;;;;4964604;28;20262;-84
2022/03/16 03:54:30;;;;;;;9.70;7.33;;;4.40;99.90;;;;;;4939775;28;20231;-87
2022/03/16 03:56:55;;;;;;;9.57;7.23;;;4.00;99.90;;;;;;4966493;28;20224;-88
2022/03/16 03:59:23;;;;;;;6.73;4.77;;;3.80;99.90;;;;;;4933146;28;20200;-86
2022/03/16 04:01:49;;;;;;;7.43;6.83;;;4.20;99.90;;;;;;4932951;28;20499;-86
2022/03/16 04:04:15;;;;;;;9.87;6.47;;;4.60;99.90;;;;;;4948964;28;20311;-85
2022/03/16 04:06:41;;;;;;;12.03;7.87;;;4.80;99.90;;;;;;4965315;28;20228;-87
2022/03/16 04:09:07;;;;;;;7.03;5.93;;;4.80;99.90;;;;;;4948163;28;20223;-87
2022/03/16 04:11:34;;;;;;;55.53;7.00;;;4.30;99.90;;;;;;4939444;28;20220;-87
2022/03/16 04:13:59;;;;;;;15.57;5.40;;;3.60;99.90;;;;;;4965105;28;20548;-84
2022/03/16 04:16:25;;;;;;;25.97;4.60;;;3.20;99.90;;;;;;4941701;28;20500;-85
2022/03/16 04:18:51;;;;;;;12.57;5.20;;;3.10;99.90;;;;;;4949000;28;20224;-85
2022/03/16 04:21:17;;;;;;;19.83;5.23;;;3.00;99.90;;;;;;4964726;28;20231;-86
2022/03/16 04:23:43;;;;;;;25.27;4.63;;;3.00;99.90;;;;;;4965639;28;20181;-85
2022/03/16 04:26:09;;;;;;;7.77;4.27;;;3.00;99.90;;;;;;4966596;28;20291;-87
2022/03/16 04:28:35;;;;;;;4.43;3.83;;;3.10;99.90;;;;;;4965206;28;20225;-88
2022/03/16 04:31:01;;;;;;;8.93;6.90;;;3.20;99.90;;;;;;4947766;28;20673;-85
2022/03/16 04:33:30;;;;;;;8.47;6.37;;;3.30;99.90;;;;;;4948146;28;20307;-87
2022/03/16 04:35:57;;;;;;;10.60;4.57;;;3.50;99.90;;;;;;4948516;28;20493;-86
2022/03/16 04:38:23;;;;;;;10.37;5.47;;;3.60;99.90;;;;;;4948906;28;20275;-85
2022/03/16 04:40:49;;;;;;;7.27;5.67;;;3.60;99.90;;;;;;4963863;28;20240;-85
2022/03/16 04:43:15;;;;;;;7.63;6.17;;;3.70;99.90;;;;;;4966339;28;20217;-86
2022/03/16 04:45:41;;;;;;;6.50;5.77;;;3.60;99.90;;;;;;4940363;28;20220;-84
2022/03/16 04:48:08;;;;;;;6.33;5.73;;;3.70;99.90;;;;;;4965884;28;20247;-87
2022/03/16 04:50:35;;;;;;;7.73;5.47;;;3.60;99.90;;;;;;4949695;28;20499;-88
2022/03/16 04:53:02;;;;;;;27.23;7.70;;;3.60;99.90;;;;;;4965211;28;20331;-87
2022/03/16 04:55:28;;;;;;;13.07;5.37;;;3.50;99.90;;;;;;4966039;28;20951;-87
2022/03/16 04:57:53;;;;;;;13.13;6.70;;;3.60;99.90;;;;;;4966085;28;20229;-86
2022/03/16 05:00:19;;;;;;;8.83;6.80;;;3.60;99.90;;;;;;4964586;28;20296;-86
2022/03/16 05:02:45;;;;;;;12.10;7.30;;;3.60;99.90;;;;;;4948598;28;20220;-85
2022/03/16 05:05:11;;;;;;;13.63;8.37;;;3.70;99.90;;;;;;4965174;28;20239;-86
2022/03/16 05:07:40;;;;;;;9.57;7.07;;;3.80;99.90;;;;;;4966221;28;20224;-86
2022/03/16 05:10:09;;;;;;;9.00;8.13;;;3.80;99.90;;;;;;4964545;28;20315;-86
2022/03/16 05:12:43;;;;;;;9.47;6.43;;;3.90;99.90;;;;;;4955196;28;20243;-86
2022/03/16 05:15:18;;;;;;;9.43;7.93;;;4.10;99.90;;;;;;4972241;28;20224;-86
2022/03/16 05:17:45;;;;;;;8.80;7.27;;;4.10;99.90;;;;;;4965503;28;20195;-86
2022/03/16 05:20:12;;;;;;;7.37;6.57;;;4.30;99.90;;;;;;4949225;28;20220;-87
2022/03/16 05:22:45;;;;;;;8.37;6.27;;;4.40;99.90;;;;;;4943014;28;20311;-85
2022/03/16 05:25:13;;;;;;;8.47;6.93;;;4.60;99.90;;;;;;4957287;28;20209;-87
2022/03/16 05:27:39;;;;;;;8.33;7.37;;;4.60;99.90;;;;;;4948197;28;20304;-88
2022/03/16 05:30:06;;;;;;;11.03;9.87;;;4.80;99.90;;;;;;4948547;28;20303;-85
2022/03/16 05:32:32;;;;;;;10.97;7.27;;;4.80;99.90;;;;;;4963925;28;20263;-85
2022/03/16 05:34:58;;;;;;;7.30;6.53;;;4.80;99.90;;;;;;4965443;28;20208;-88
2022/03/16 05:37:24;;;;;;;10.30;7.90;;;4.70;99.90;;;;;;4973728;28;20217;-85
2022/03/16 05:39:50;;;;;;;14.00;7.90;;;4.60;99.90;;;;;;4965466;28;20217;-85
2022/03/16 05:42:15;;;;;;;9.90;5.87;;;4.60;99.90;;;;;;4960145;28;20651;-87
2022/03/16 05:44:41;;;;;;;16.07;8.73;;;4.80;99.90;;;;;;4959931;28;20192;-84
2022/03/16 05:47:07;;;;;;;20.03;7.17;;;4.80;99.90;;;;;;4974911;28;20251;-86
2022/03/16 05:49:33;;;;;;;11.77;7.97;;;4.90;99.90;;;;;;4973265;28;20247;-87
2022/03/16 05:51:59;;;;;;;12.90;7.33;;;5.00;99.90;;;;;;4958510;28;20724;-86
2022/03/16 05:54:25;;;;;;;16.77;7.23;;;5.00;99.90;;;;;;4982809;28;20575;-85
2022/03/16 05:56:51;;;;;;;13.23;9.57;;;5.00;99.90;;;;;;4968331;28;20227;-88
2022/03/16 05:59:16;;;;;;;12.47;10.33;;;5.00;99.90;;;;;;4957836;28;20658;-88
2022/03/16 06:01:42;;;;;;;9.03;7.73;;;5.00;99.90;;;;;;4968502;28;20567;-87
2022/03/16 06:04:08;;;;;;;7.33;6.60;;;5.00;99.90;;;;;;4967827;28;20225;-85
2022/03/16 06:06:34;;;;;;;12.47;7.17;;;5.00;99.90;;;;;;4951460;28;20303;-86
2022/03/16 06:08:59;;;;;;;6.17;4.53;;;4.60;99.90;;;;;;4967586;28;20619;-86
2022/03/16 06:11:26;;;;;;;7.07;6.37;;;4.50;99.90;;;;;;4976593;28;20188;-86
2022/03/16 06:13:52;;;;;;;10.23;7.47;;;4.50;99.90;;;;;;4959906;28;20256;-84
2022/03/16 06:16:17;;;;;;;8.17;6.37;;;4.40;99.90;;;;;;4958614;28;20431;-88
2022/03/16 06:18:43;;;;;;;9.87;7.63;;;4.50;99.90;;;;;;4957337;28;20270;-88
2022/03/16 06:21:09;;;;;;;8.73;7.20;;;4.50;99.90;;;;;;4975841;28;20867;-88
2022/03/16 06:23:35;;;;;;;7.50;6.90;;;4.50;99.90;;;;;;4950710;28;20606;-88
2022/03/16 06:26:04;;;;;;;6.23;5.63;;;4.60;99.90;;;;;;4977226;28;20259;-88
2022/03/16 06:28:31;;;;;;;10.33;8.77;;;4.40;99.90;;;;;;4967986;28;20224;-90
2022/03/16 06:30:57;;;;;;;11.27;7.93;;;4.50;99.90;;;;;;4968294;28;20291;-89
2022/03/16 06:33:23;;;;;;;10.87;6.20;;;4.50;99.90;;;;;;4967058;28;20693;-88
2022/03/16 06:35:48;;;;;;;8.27;5.47;;;4.60;99.90;;;;;;4968818;28;20225;-88
2022/03/16 06:38:14;;;;;;;8.60;7.80;;;4.70;99.90;;;;;;4952542;28;20193;-88
2022/03/16 06:40:40;;;;;;;10.23;6.73;;;4.70;99.90;;;;;;4977211;28;20224;-87
2022/03/16 06:43:06;;;;;;;7.37;6.73;;;4.70;99.90;;;;;;4966710;28;20208;-88
2022/03/16 06:45:32;;;;;;;14.70;7.90;;;4.80;99.90;;;;;;4967914;28;20724;-87
2022/03/16 06:48:01;;;;;;;6.03;5.53;;;5.00;99.90;;;;;;4967854;28;20220;-88
2022/03/16 06:50:28;;;;;;;13.27;9.30;;;5.00;99.90;;;;;;4967729;28;20228;-88
2022/03/16 06:52:54;;;;;;;9.57;6.03;;;5.10;99.90;;;;;;4986337;28;20338;-87
2022/03/16 06:55:21;;;;;;;12.93;10.30;;;5.10;99.90;;;;;;4969457;28;20361;-86
2022/03/16 06:57:46;;;;;;;8.57;6.90;;;5.20;99.90;;;;;;4969060;28;20730;-86
2022/03/16 07:00:14;;;;;;;13.30;7.03;;;5.50;99.90;;;;;;4969701;28;20236;-88
2022/03/16 07:02:50;;;;;;;11.97;6.47;;;5.60;99.90;;;;;;4969725;28;20358;-89
2022/03/16 07:05:16;;;;;;;12.00;7.33;;;5.70;99.90;;;;;;4969498;28;20509;-87
2022/03/16 07:07:42;;;;;;;9.93;7.33;;;5.70;99.90;;;;;;4953429;28;20222;-87
2022/03/16 07:10:08;;;;;;;7.63;6.70;;;5.70;99.90;;;;;;4953399;28;20406;-87
2022/03/16 07:12:34;;;;;;;9.43;7.40;;;5.90;99.90;;;;;;4961043;28;20884;-87
2022/03/16 07:14:59;;;;;;;14.23;9.07;;;5.90;99.90;;;;;;4952386;28;20331;-87
2022/03/16 07:17:25;;;;;;;7.67;5.47;;;6.00;99.90;;;;;;4953852;28;20726;-86
2022/03/16 07:19:51;;;;;;;11.93;9.07;;;6.10;99.90;;;;;;4961607;28;20212;-88
2022/03/16 07:22:17;;;;;;;12.73;8.63;;;6.20;99.90;;;;;;4967756;28;20226;-91
2022/03/16 07:24:42;;;;;;;9.87;8.10;;;6.30;99.90;;;;;;4983286;28;20701;-89
2022/03/16 07:27:08;;;;;;;9.97;7.87;;;6.20;99.90;;;;;;4952399;28;20275;-88
2022/03/16 07:29:34;;;;;;;10.90;7.30;;;6.30;99.90;;;;;;4951656;28;20222;-89
2022/03/16 07:31:59;;;;;;;9.17;7.97;;;6.40;99.90;;;;;;4953206;28;20327;-91
2022/03/16 07:34:26;;;;;;;17.30;8.77;;;6.50;99.90;;;;;;4952189;28;20223;-93
2022/03/16 07:36:53;;;;;;;14.87;10.53;;;6.50;99.90;;;;;;4968483;28;20215;-89
2022/03/16 07:39:19;;;;;;;17.97;9.20;;;6.70;99.90;;;;;;4983860;28;20227;-88
2022/03/16 07:41:45;;;;;;;9.30;7.57;;;6.80;99.90;;;;;;4968726;28;20211;-88
2022/03/16 07:44:11;;;;;;;14.03;11.33;;;7.00;99.90;;;;;;4960493;28;20192;-89
2022/03/16 07:46:36;;;;;;;13.77;8.67;;;7.10;99.90;;;;;;4983746;28;20215;-87
2022/03/16 07:49:03;;;;;;;12.33;8.77;;;7.30;99.90;;;;;;4967950;28;20219;-88
2022/03/16 07:51:29;;;;;;;11.27;9.33;;;7.20;99.90;;;;;;4983564;28;20449;-88
2022/03/16 07:53:55;;;;;;;8.43;7.63;;;7.20;99.90;;;;;;4968215;28;20212;-89
2022/03/16 07:56:20;;;;;;;14.67;9.97;;;7.50;99.90;;;;;;4961544;28;20187;-87
2022/03/16 07:58:46;;;;;;;11.87;10.20;;;7.70;99.90;;;;;;4968465;28;20219;-92
2022/03/16 08:01:12;;;;;;;11.83;9.23;;;7.80;99.90;;;;;;4959087;28;20240;-88
2022/03/16 08:03:38;;;;;;;16.87;9.93;;;7.90;99.90;;;;;;4968276;28;20346;-89
2022/03/16 08:06:03;;;;;;;21.07;13.83;;;8.20;99.90;;;;;;4976748;28;20277;-88
2022/03/16 08:08:30;;;;;;;18.17;9.33;;;8.30;99.90;;;;;;4961413;28;20527;-86
2022/03/16 08:10:56;;;;;;;11.17;8.87;;;8.30;99.90;;;;;;4967431;28;20194;-91
2022/03/16 08:13:22;;;;;;;13.93;9.20;;;8.30;99.90;;;;;;4966732;28;20216;-92
2022/03/16 08:15:49;;;;;;;9.20;8.17;;;8.40;99.90;;;;;;4959695;28;20685;-92
2022/03/16 08:18:14;;;;;;;15.63;9.63;;;8.40;99.90;;;;;;4968629;28;20219;-90
2022/03/16 08:20:40;;;;;;;13.47;9.07;;;8.50;99.90;;;;;;4951886;28;20219;-88
2022/03/16 08:23:06;;;;;;;13.07;11.07;;;8.60;99.90;;;;;;4962565;28;20649;-88
2022/03/16 08:25:32;;;;;;;24.67;12.80;;;8.80;99.90;;;;;;4968722;28;20226;-89
2022/03/16 08:27:59;;;;;;;12.70;10.07;;;9.00;99.90;;;;;;4968413;28;20220;-88
2022/03/16 08:30:25;;;;;;;10.93;7.83;;;9.30;99.90;;;;;;4986009;28;20224;-87
2022/03/16 08:32:50;;;;;;;14.47;10.87;;;9.90;99.90;;;;;;4985940;28;20219;-91
2022/03/16 08:35:16;;;;;;;12.63;8.20;;;10.30;99.90;;;;;;4968889;28;20288;-89
2022/03/16 08:37:42;;;;;;;17.73;8.60;;;10.40;99.90;;;;;;4968289;28;20255;-89
2022/03/16 08:40:09;;;;;;;15.33;8.93;;;10.40;99.90;;;;;;4952106;28;20231;-91
2022/03/16 08:42:35;;;;;;;12.87;9.03;;;10.70;99.90;;;;;;4967862;28;20310;-89
2022/03/16 08:45:01;;;;;;;17.73;9.10;;;10.80;99.90;;;;;;4984007;28;20355;-91
2022/03/16 08:47:27;;;;;;;12.00;7.00;;;11.00;99.90;;;;;;4972599;28;20629;-90
2022/03/16 08:49:55;;;;;;;11.43;9.30;;;10.90;99.90;;;;;;4974674;28;20291;-89
2022/03/16 08:52:21;;;;;;;12.07;8.73;;;11.00;99.90;;;;;;4973563;28;20238;-89
2022/03/16 08:54:48;;;;;;;16.33;9.00;;;10.90;99.90;;;;;;4976394;28;20668;-89
2022/03/16 08:57:14;;;;;;;11.50;7.60;;;10.80;99.90;;;;;;4985457;28;20235;-90
2022/03/16 08:59:40;;;;;;;11.23;7.27;;;11.00;99.90;;;;;;4984425;28;20306;-90
2022/03/16 09:02:06;;;;;;;9.47;7.40;;;11.30;99.90;;;;;;4968137;28;20677;-89
2022/03/16 09:04:32;;;;;;;9.70;6.63;;;11.50;99.90;;;;;;4967868;28;20215;-90
2022/03/16 09:07:02;;;;;;;5.90;5.20;;;11.80;99.90;;;;;;4984894;28;20219;-89
2022/03/16 09:09:28;;;;;;;7.53;5.60;;;12.30;99.90;;;;;;4974686;28;20395;-89
2022/03/16 09:11:54;;;;;;;11.07;7.17;;;12.40;99.90;;;;;;4966754;28;20350;-90
2022/03/16 09:14:19;;;;;;;7.73;5.47;;;12.00;99.90;;;;;;4985059;28;20259;-92
2022/03/16 09:16:45;;;;;;;8.93;5.43;;;11.70;99.90;;;;;;4955200;28;20228;-90
2022/03/16 09:19:15;;;;;;;9.00;5.87;;;11.90;99.90;;;;;;4971952;28;20406;-90
2022/03/16 09:21:45;;;;;;;8.33;4.07;;;11.60;99.90;;;;;;4980800;28;20240;-90
2022/03/16 09:24:11;;;;;;;12.37;6.53;;;11.60;99.90;;;;;;4971370;28;20261;-90
2022/03/16 09:26:37;;;;;;;11.33;6.90;;;11.80;99.90;;;;;;4963414;28;20230;-90
2022/03/16 09:29:02;;;;;;;10.67;6.60;;;11.90;99.90;;;;;;4989745;28;20354;-90
2022/03/16 09:31:28;;;;;;;8.17;6.60;;;11.90;99.90;;;;;;4970311;28;20505;-90
2022/03/16 09:33:54;;;;;;;12.00;7.90;;;11.90;99.90;;;;;;4964844;28;20220;-89
2022/03/16 09:36:20;;;;;;;10.23;6.30;;;12.00;99.90;;;;;;4988325;28;20223;-88
2022/03/16 09:38:46;;;;;;;8.50;6.40;;;12.00;99.90;;;;;;4988731;28;20211;-92
2022/03/16 09:41:11;;;;;;;8.70;6.23;;;12.20;99.90;;;;;;4955318;28;20681;-91
2022/03/16 09:43:38;;;;;;;11.07;6.03;;;12.30;99.90;;;;;;4988927;28;20219;-92
2022/03/16 09:46:09;;;;;;;7.70;3.97;;;12.30;99.90;;;;;;4961782;28;20226;-92
2022/03/16 09:48:36;;;;;;;8.37;4.67;;;12.40;99.90;;;;;;4971222;28;20786;-91
2022/03/16 09:51:03;;;;;;;6.30;4.40;;;12.40;99.90;;;;;;4970890;28;20243;-90
2022/03/16 09:53:30;;;;;;;8.60;5.57;;;12.50;99.90;;;;;;4978092;28;20226;-89
2022/03/16 09:55:56;;;;;;;10.03;7.13;;;12.50;99.90;;;;;;4971057;28;20191;-89
2022/03/16 09:58:22;;;;;;;7.23;4.13;;;12.90;99.90;;;;;;4986737;28;20286;-92
2022/03/16 10:00:53;;;;;;;8.07;5.23;;;13.10;99.90;;;;;;4970578;28;20740;-91
2022/03/16 10:03:28;;;;;;;10.47;5.93;;;13.30;99.90;;;;;;4986598;28;20227;-92
2022/03/16 10:05:57;;;;;;;9.33;5.87;;;13.40;99.90;;;;;;4987916;28;20230;-92
2022/03/16 10:08:31;;;;;;;6.77;4.53;;;13.70;99.90;;;;;;4986565;28;20238;-88
2022/03/16 10:14:07;;;;;;;15.17;6.47;;;13.70;99.90;;;;;;4988594;28;20212;-92
2022/03/16 10:17:43;;;;;;;7.07;4.90;;;13.40;99.90;;;;;;4987902;28;20236;-91
2022/03/16 10:19:21;;;;;;;17.23;8.17;;;13.20;99.90;;;;;;4972839;28;20220;-90
2022/03/16 10:22:00;;;;;;;11.57;6.90;;;13.50;99.90;;;;;;4970352;28;20330;-91
2022/03/16 10:24:29;;;;;;;8.03;5.77;;;13.30;99.90;;;;;;4986241;28;20220;-90
2022/03/16 10:26:58;;;;;;;8.47;5.20;;;13.20;99.90;;;;;;4985471;28;20230;-91
2022/03/16 10:29:26;;;;;;;5.77;4.83;;;13.30;99.90;;;;;;4971222;28;20204;-91
2022/03/16 10:32:04;;;;;;;10.60;4.13;;;13.30;99.90;;;;;;4969895;28;20536;-89
2022/03/16 10:34:31;;;;;;;3.73;2.97;;;13.40;99.90;;;;;;4987606;28;20254;-89
2022/03/16 10:37:02;;;;;;;6.37;4.63;;;13.60;99.90;;;;;;4976341;28;20684;-90
2022/03/16 10:39:35;;;;;;;6.93;5.37;;;13.70;99.90;;;;;;4985823;28;20274;-90
2022/03/16 10:48:01;;;;;;;5.73;3.87;;;14.10;99.90;;;;;;4972575;28;20708;-91
2022/03/16 10:50:27;;;;;;;5.97;3.13;;;14.10;99.90;;;;;;4983485;28;20223;-92
2022/03/16 10:52:53;;;;;;;3.90;2.97;;;14.00;99.90;;;;;;4961448;28;20644;-91
2022/03/16 10:55:20;;;;;;;6.70;5.03;;;14.20;99.90;;;;;;4968303;28;20344;-89
2022/03/16 10:57:49;;;;;;;5.23;3.90;;;14.20;99.90;;;;;;4968018;28;20615;-88
2022/03/16 11:00:18;;;;;;;4.93;2.87;;;14.00;99.90;;;;;;4950302;28;20233;-89
2022/03/16 11:02:50;;;;;;;6.30;3.30;;;13.80;99.90;;;;;;4967458;28;20227;-88
2022/03/16 11:05:20;;;;;;;4.73;3.03;;;14.00;99.90;;;;;;4966957;28;20192;-89
2022/03/16 11:07:49;;;;;;;4.73;3.77;;;14.10;99.90;;;;;;4970693;28;20231;-89
2022/03/16 11:10:17;;;;;;;5.03;3.07;;;14.20;99.90;;;;;;4978532;28;20327;-87
2022/03/16 11:15:31;;;;;;;4.20;3.70;;;14.50;99.90;;;;;;4968224;28;20223;-89
2022/03/16 11:17:57;;;;;;;3.93;2.87;;;14.60;99.90;;;;;;4968740;28;20586;-90
2022/03/16 11:20:24;;;;;;;3.33;2.70;;;14.70;99.90;;;;;;4966726;28;20225;-90
2022/03/16 11:25:55;;;;;;;5.00;3.37;;;14.80;99.90;;;;;;4968443;28;20224;-90
2022/03/16 11:28:38;;;;;;;3.60;2.07;;;14.70;99.90;;;;;;4969318;28;20228;-90
2022/03/16 11:31:08;;;;;;;4.03;3.20;;;14.70;99.90;;;;;;4970308;28;20744;-90
2022/03/16 11:33:51;;;;;;;5.60;2.97;;;14.70;99.90;;;;;;4944332;28;20266;-90
2022/03/16 11:36:37;;;;;;;6.57;2.20;;;14.80;99.90;;;;;;4945032;28;20224;-85
2022/03/16 11:39:14;;;;;;;3.07;1.60;;;14.50;99.90;;;;;;4949270;28;20232;-85
2022/03/16 11:41:51;;;;;;;6.67;3.87;;;14.60;99.90;;;;;;4941662;28;20235;-85
2022/03/16 11:44:26;;;;;;;5.53;3.33;;;14.70;99.90;;;;;;4943539;28;20275;-90
2022/03/16 11:47:10;;;;;;;3.97;3.63;;;14.80;99.90;;;;;;4969603;28;20228;-89
2022/03/16 11:49:59;;;;;;;2.63;2.43;;;14.90;99.90;;;;;;4966234;28;20227;-88
2022/03/16 11:52:25;;;;;;;3.47;2.30;;;14.90;99.90;;;;;;4956082;28;20323;-88
2022/03/16 11:54:53;;;;;;;4.93;1.70;;;14.80;99.90;;;;;;4965085;28;20660;-90
2022/03/16 11:57:50;;;;;;;5.43;2.60;;;14.90;99.90;;;;;;4963962;28;20225;-90
2022/03/16 12:00:17;;;;;;;5.50;2.60;;;15.00;99.90;;;;;;4956458;28;20224;-87
2022/03/16 12:02:55;;;;;;;2.53;2.20;;;14.90;99.90;;;;;;4955500;28;20280;-90
2022/03/16 12:05:22;;;;;;;2.57;2.10;;;14.80;99.90;;;;;;4962845;28;20184;-87
2022/03/16 12:08:11;;;;;;;5.03;2.10;;;14.80;99.90;;;;;;4964716;28;20217;-88
2022/03/16 12:10:46;;;;;;;2.73;2.47;;;14.80;99.90;;;;;;4958887;28;20271;-88
2022/03/16 12:13:15;;;;;;;4.07;2.90;;;15.00;99.90;;;;;;4966044;28;20216;-89
2022/03/16 12:15:42;;;;;;;4.00;2.20;;;14.90;99.90;;;;;;4957587;28;20231;-90
2022/03/16 12:18:14;;;;;;;4.80;2.60;;;14.90;99.90;;;;;;4951066;28;20221;-88
2022/03/16 12:20:54;;;;;;;4.87;3.30;;;14.80;99.90;;;;;;4970019;28;20243;-94
2022/03/16 12:23:43;;;;;;;4.03;2.10;;;14.90;99.90;;;;;;4970787;28;20191;-91
2022/03/16 12:26:09;;;;;;;5.60;2.83;;;15.00;99.90;;;;;;4970587;28;20224;-93
2022/03/16 12:31:19;;;;;;;5.70;4.40;;;14.90;99.90;;;;;;4971814;28;20228;-92
2022/03/16 12:33:52;;;;;;;4.90;3.33;;;14.90;99.90;;;;;;4964477;28;20662;-91
2022/03/16 12:36:21;;;;;;;4.07;3.07;;;14.80;99.90;;;;;;4969901;28;20244;-91
2022/03/16 12:38:55;;;;;;;3.23;2.13;;;15.00;99.90;;;;;;4973025;28;20189;-89
2022/03/16 12:44:12;;;;;;;5.40;2.40;;;14.80;99.90;;;;;;4950656;28;20577;-92
2022/03/16 12:46:49;;;;;;;2.80;2.17;;;15.00;99.90;;;;;;4971010;28;20227;-93
2022/03/16 12:49:17;;;;;;;5.87;3.33;;;15.00;99.90;;;;;;4977011;28;20589;-91
2022/03/16 12:51:46;;;;;;;3.43;2.37;;;14.80;99.90;;;;;;4975775;28;20259;-91
2022/03/16 12:54:37;;;;;;;5.00;2.73;;;15.00;99.90;;;;;;4976165;28;21114;-92
2022/03/16 12:57:08;;;;;;;2.57;1.90;;;14.90;99.90;;;;;;4973861;28;20250;-92
2022/03/16 12:59:38;;;;;;;4.57;2.57;;;14.80;99.90;;;;;;4960583;28;20196;-90
2022/03/16 13:02:10;;;;;;;3.07;2.47;;;14.80;99.90;;;;;;4975340;28;20246;-93
2022/03/16 13:04:40;;;;;;;4.17;2.30;;;15.00;99.90;;;;;;4973686;28;20350;-91
2022/03/16 13:07:07;;;;;;;2.47;2.00;;;15.00;99.90;;;;;;4994302;28;20369;-91
2022/03/16 13:09:35;;;;;;;2.53;2.17;;;15.00;99.90;;;;;;4974282;28;20226;-91